Time;durP1;ratioP1;P1;durP2;ratioP2;P2;SDS_P1;SDS_P2;PMS_P1;PMS_P2;Temp;Humidity;BMP_temperature;BMP_pressure;BME280_temperature;BME280_humidity;BME280_pressure;Samples;Min_cycle;Max_cycle;Signal;HPM_P1;HPM_P2
2023/04/03 00:00:13;;;;;;;19.38;9.75;;;;;;;;;;4812385;29;20046;-79
2023/04/03 00:02:58;;;;;;;21.83;10.60;;;;;;;;;;4811896;29;20046;-79
2023/04/03 00:05:45;;;;;;;16.38;9.85;;;;;;;;;;4811662;29;20043;-78
2023/04/03 00:08:30;;;;;;;18.65;9.73;;;;;;;;;;4812264;29;20055;-78
2023/04/03 00:11:16;;;;;;;14.35;7.78;;;;;;;;;;4811918;29;20047;-78
2023/04/03 00:14:01;;;;;;;12.40;6.65;;;;;;;;;;4812161;29;20404;-79
2023/04/03 00:16:47;;;;;;;15.30;6.78;;;;;;;;;;4811564;29;20051;-80
2023/04/03 00:19:33;;;;;;;12.10;6.53;;;;;;;;;;4811543;29;20430;-78
2023/04/03 00:22:21;;;;;;;11.02;6.32;;;;;;;;;;4812229;29;20050;-78
2023/04/03 00:25:08;;;;;;;12.82;7.28;;;;;;;;;;4812493;29;20063;-77
2023/04/03 00:27:53;;;;;;;13.75;8.55;;;;;;;;;;4811348;29;20504;-78
2023/04/03 00:30:38;;;;;;;10.68;6.57;;;;;;;;;;4811925;29;20054;-78
2023/04/03 00:33:24;;;;;;;10.05;6.07;;;;;;;;;;4811951;29;20062;-78
2023/04/03 00:36:10;;;;;;;10.13;6.13;;;;;;;;;;4811371;29;20059;-78
2023/04/03 00:38:56;;;;;;;10.48;6.10;;;;;;;;;;4812246;29;20408;-78
2023/04/03 00:41:43;;;;;;;15.13;8.98;;;;;;;;;;4811444;29;20054;-78
2023/04/03 00:44:28;;;;;;;24.75;13.55;;;;;;;;;;4804712;29;20416;-78
2023/04/03 00:47:17;;;;;;;28.25;15.70;;;;;;;;;;4805091;29;21571;-78
2023/04/03 00:50:03;;;;;;;29.23;14.35;;;;;;;;;;4804964;29;20046;-78
2023/04/03 00:52:49;;;;;;;24.67;13.55;;;;;;;;;;4792054;29;20047;-78
2023/04/03 00:55:36;;;;;;;25.45;14.07;;;;;;;;;;4811455;29;20038;-77
2023/04/03 00:58:27;;;;;;;31.02;15.50;;;;;;;;;;4811611;29;20039;-78
2023/04/03 01:01:16;;;;;;;27.48;16.52;;;;;;;;;;4811689;29;20058;-78
2023/04/03 01:04:05;;;;;;;30.50;16.38;;;;;;;;;;4804138;29;20050;-78
2023/04/03 01:06:51;;;;;;;26.00;15.02;;;;;;;;;;4804613;29;20488;-78
2023/04/03 01:09:41;;;;;;;29.15;15.32;;;;;;;;;;4803910;29;20046;-78
2023/04/03 01:12:33;;;;;;;22.80;13.68;;;;;;;;;;4811582;29;20055;-78
2023/04/03 01:15:26;;;;;;;23.35;11.68;;;;;;;;;;4810991;29;20038;-77
2023/04/03 01:18:11;;;;;;;18.20;9.98;;;;;;;;;;4803635;29;20050;-78
2023/04/03 01:21:26;;;;;;;17.27;10.10;;;;;;;;;;4804298;29;20055;-77
2023/04/03 01:24:35;;;;;;;17.20;10.02;;;;;;;;;;4803289;29;20054;-78
2023/04/03 01:27:22;;;;;;;17.30;9.57;;;;;;;;;;4782791;29;20055;-78
2023/04/03 01:30:08;;;;;;;21.63;13.05;;;;;;;;;;4784657;30;20040;-78
2023/04/03 01:32:54;;;;;;;21.17;10.82;;;;;;;;;;4783386;29;20059;-78
2023/04/03 01:35:39;;;;;;;19.80;10.30;;;;;;;;;;4785321;30;20047;-78
2023/04/03 01:38:25;;;;;;;17.65;9.35;;;;;;;;;;4782466;29;20486;-78
2023/04/03 01:41:12;;;;;;;12.90;8.82;;;;;;;;;;4784346;30;20063;-78
2023/04/03 01:43:58;;;;;;;12.40;7.80;;;;;;;;;;4782681;30;20051;-78
2023/04/03 01:46:47;;;;;;;12.13;7.68;;;;;;;;;;4776883;30;20497;-78
2023/04/03 01:49:32;;;;;;;11.07;7.22;;;;;;;;;;4783005;30;20055;-78
2023/04/03 01:52:18;;;;;;;14.07;7.85;;;;;;;;;;4782923;30;20051;-78
2023/04/03 01:55:03;;;;;;;14.65;8.20;;;;;;;;;;4784705;30;20051;-78
2023/04/03 01:57:49;;;;;;;14.68;8.30;;;;;;;;;;4780922;30;20051;-77
2023/04/03 02:00:34;;;;;;;15.38;8.90;;;;;;;;;;4781375;30;20055;-77
2023/04/03 02:03:20;;;;;;;16.60;9.23;;;;;;;;;;4765422;30;20498;-78
2023/04/03 02:06:06;;;;;;;16.10;8.45;;;;;;;;;;4781667;29;20051;-78
2023/04/03 02:08:52;;;;;;;15.40;8.25;;;;;;;;;;4782275;30;20517;-79
2023/04/03 02:11:38;;;;;;;16.65;7.65;;;;;;;;;;4780639;30;20474;-78
2023/04/03 02:14:24;;;;;;;11.60;6.28;;;;;;;;;;4785047;30;20063;-78
2023/04/03 02:17:09;;;;;;;20.77;7.38;;;;;;;;;;4783182;30;20052;-78
2023/04/03 02:19:55;;;;;;;12.50;5.97;;;;;;;;;;4780058;30;20063;-78
2023/04/03 02:22:40;;;;;;;12.50;5.85;;;;;;;;;;4782568;30;20073;-78
2023/04/03 02:25:31;;;;;;;10.23;5.60;;;;;;;;;;4784090;29;20050;-78
2023/04/03 02:28:19;;;;;;;14.75;6.57;;;;;;;;;;4798568;29;20055;-78
2023/04/03 02:31:09;;;;;;;8.75;5.63;;;;;;;;;;4798277;29;20051;-79
2023/04/03 02:33:57;;;;;;;9.25;6.03;;;;;;;;;;4797175;29;20063;-79
2023/04/03 02:36:42;;;;;;;10.50;5.70;;;;;;;;;;4798066;29;20485;-79
2023/04/03 02:39:29;;;;;;;8.55;5.22;;;;;;;;;;4798853;29;20055;-79
2023/04/03 02:42:17;;;;;;;7.40;5.00;;;;;;;;;;4800404;29;20043;-79
2023/04/03 02:45:03;;;;;;;10.50;5.68;;;;;;;;;;4799866;29;20043;-78
2023/04/03 02:47:49;;;;;;;8.13;5.43;;;;;;;;;;4798422;29;21220;-78
2023/04/03 02:50:38;;;;;;;7.78;5.30;;;;;;;;;;4799850;29;20420;-77
2023/04/03 02:53:23;;;;;;;12.52;5.15;;;;;;;;;;4802046;29;20047;-78
2023/04/03 02:56:09;;;;;;;8.07;4.85;;;;;;;;;;4801566;29;20404;-78
2023/04/03 02:58:55;;;;;;;7.93;5.22;;;;;;;;;;4802876;29;20051;-78
2023/04/03 03:01:41;;;;;;;13.48;5.45;;;;;;;;;;4801844;29;20055;-78
2023/04/03 03:04:26;;;;;;;11.63;5.68;;;;;;;;;;4803682;29;20441;-78
2023/04/03 03:07:11;;;;;;;11.25;5.63;;;;;;;;;;4796520;29;20504;-78
2023/04/03 03:09:56;;;;;;;9.23;5.78;;;;;;;;;;4804108;29;20046;-79
2023/04/03 03:12:42;;;;;;;10.40;5.57;;;;;;;;;;4802978;29;20400;-79
2023/04/03 03:15:27;;;;;;;12.32;5.68;;;;;;;;;;4803187;29;20056;-79
2023/04/03 03:18:12;;;;;;;9.60;5.10;;;;;;;;;;4803109;29;20497;-79
2023/04/03 03:21:00;;;;;;;10.18;5.40;;;;;;;;;;4804255;29;20477;-79
2023/04/03 03:23:45;;;;;;;8.68;5.22;;;;;;;;;;4801922;29;20050;-79
2023/04/03 03:26:30;;;;;;;12.32;5.65;;;;;;;;;;4798716;29;20055;-79
2023/04/03 03:29:15;;;;;;;11.48;7.18;;;;;;;;;;4804147;29;20055;-78
2023/04/03 03:32:01;;;;;;;14.75;7.13;;;;;;;;;;4802881;29;20051;-80
2023/04/03 03:34:46;;;;;;;10.93;6.90;;;;;;;;;;4803650;29;20055;-80
2023/04/03 03:37:31;;;;;;;11.15;6.90;;;;;;;;;;4803699;29;20042;-80
2023/04/03 03:40:17;;;;;;;13.23;8.32;;;;;;;;;;4802990;29;20058;-80
2023/04/03 03:43:02;;;;;;;16.25;9.23;;;;;;;;;;4803515;29;20047;-80
2023/04/03 03:46:10;;;;;;;17.83;10.55;;;;;;;;;;4804257;29;20067;-80
2023/04/03 03:48:55;;;;;;;8.00;5.35;;;;;;;;;;4803192;29;20485;-79
2023/04/03 03:51:41;;;;;;;18.40;12.48;;;;;;;;;;4803400;29;20046;-78
2023/04/03 03:54:26;;;;;;;18.02;12.90;;;;;;;;;;4803160;29;20063;-79
2023/04/03 03:57:12;;;;;;;14.75;11.20;;;;;;;;;;4801494;29;20417;-79
2023/04/03 03:59:57;;;;;;;20.98;12.13;;;;;;;;;;4802222;29;20047;-78
2023/04/03 04:02:43;;;;;;;13.73;9.73;;;;;;;;;;4802165;29;20489;-79
2023/04/03 04:05:33;;;;;;;13.13;9.05;;;;;;;;;;4795250;29;20046;-79
2023/04/03 04:08:19;;;;;;;19.40;13.45;;;;;;;;;;4802952;29;20054;-79
2023/04/03 04:11:05;;;;;;;15.73;10.38;;;;;;;;;;4801831;29;20050;-79
2023/04/03 04:13:51;;;;;;;17.17;11.77;;;;;;;;;;4801957;29;20055;-79
2023/04/03 04:16:39;;;;;;;10.85;7.53;;;;;;;;;;4802393;29;20047;-80
2023/04/03 04:19:29;;;;;;;22.77;14.68;;;;;;;;;;4799295;29;20042;-79
2023/04/03 04:22:15;;;;;;;16.77;10.07;;;;;;;;;;4795288;29;20051;-80
2023/04/03 04:25:02;;;;;;;23.33;16.13;;;;;;;;;;4811275;29;20054;-80
2023/04/03 04:27:47;;;;;;;14.07;11.27;;;;;;;;;;4802765;29;20413;-80
2023/04/03 04:30:34;;;;;;;9.27;7.47;;;;;;;;;;4800584;29;20055;-79
2023/04/03 04:33:20;;;;;;;15.27;9.02;;;;;;;;;;4801019;29;20054;-79
2023/04/03 04:36:07;;;;;;;16.10;10.77;;;;;;;;;;4801697;29;20050;-79
2023/04/03 04:38:54;;;;;;;15.90;9.98;;;;;;;;;;4801312;29;20493;-79
2023/04/03 04:41:41;;;;;;;14.02;10.88;;;;;;;;;;4802043;29;20043;-78
2023/04/03 04:44:28;;;;;;;11.50;7.00;;;;;;;;;;4801695;29;20055;-79
2023/04/03 04:47:13;;;;;;;11.57;6.93;;;;;;;;;;4799705;29;20481;-79
2023/04/03 04:49:59;;;;;;;18.30;12.35;;;;;;;;;;4802172;29;20062;-80
2023/04/03 04:52:45;;;;;;;20.20;12.02;;;;;;;;;;4801710;29;20055;-79
2023/04/03 04:55:30;;;;;;;11.38;7.97;;;;;;;;;;4802183;29;20055;-80
2023/04/03 04:58:16;;;;;;;13.85;9.70;;;;;;;;;;4801511;29;20059;-79
2023/04/03 05:01:05;;;;;;;14.00;9.65;;;;;;;;;;4800711;29;20421;-80
2023/04/03 05:03:52;;;;;;;20.95;12.88;;;;;;;;;;4801403;29;20058;-78
2023/04/03 05:06:38;;;;;;;27.23;14.32;;;;;;;;;;4800881;29;20051;-79
2023/04/03 05:09:28;;;;;;;14.88;8.75;;;;;;;;;;4801079;29;20047;-79
2023/04/03 05:12:14;;;;;;;10.32;6.95;;;;;;;;;;4801675;29;20396;-79
2023/04/03 05:15:07;;;;;;;10.27;7.03;;;;;;;;;;4800294;29;20046;-79
2023/04/03 05:17:53;;;;;;;14.32;8.93;;;;;;;;;;4801182;29;20047;-79
2023/04/03 05:20:39;;;;;;;10.60;6.00;;;;;;;;;;4802014;29;20050;-79
2023/04/03 05:23:25;;;;;;;9.75;7.25;;;;;;;;;;4800561;29;20063;-79
2023/04/03 05:26:11;;;;;;;11.88;8.15;;;;;;;;;;4796422;29;20404;-80
2023/04/03 05:28:58;;;;;;;15.48;8.80;;;;;;;;;;4800502;29;20493;-81
2023/04/03 05:31:43;;;;;;;21.52;7.38;;;;;;;;;;4801038;29;20424;-81
2023/04/03 05:34:30;;;;;;;8.52;4.85;;;;;;;;;;4800867;29;20051;-85
2023/04/03 05:37:16;;;;;;;15.85;5.57;;;;;;;;;;4801454;29;20050;-82
2023/04/03 05:40:04;;;;;;;16.95;9.48;;;;;;;;;;4801416;29;20051;-85
2023/04/03 05:42:50;;;;;;;10.32;7.35;;;;;;;;;;4801123;29;20051;-81
2023/04/03 05:45:38;;;;;;;14.70;8.63;;;;;;;;;;4800638;29;20047;-83
2023/04/03 05:48:23;;;;;;;12.70;7.63;;;;;;;;;;4799972;29;20059;-81
2023/04/03 05:51:18;;;;;;;14.75;9.93;;;;;;;;;;4802051;29;20039;-82
2023/04/03 05:54:20;;;;;;;9.88;7.18;;;;;;;;;;4800401;29;20063;-81
2023/04/03 05:57:06;;;;;;;14.48;9.93;;;;;;;;;;4801008;29;20059;-81
2023/04/03 05:59:51;;;;;;;16.27;9.48;;;;;;;;;;4799899;29;20043;-82
2023/04/03 06:02:38;;;;;;;15.02;9.32;;;;;;;;;;4797991;29;20051;-82
2023/04/03 06:05:24;;;;;;;14.55;9.55;;;;;;;;;;4801023;29;20489;-82
2023/04/03 06:08:09;;;;;;;21.27;10.82;;;;;;;;;;4798550;29;20051;-82
2023/04/03 06:10:56;;;;;;;16.48;10.35;;;;;;;;;;4799534;29;20050;-80
2023/04/03 06:13:40;;;;;;;10.02;6.90;;;;;;;;;;4800333;29;20038;-80
2023/04/03 06:16:29;;;;;;;13.15;8.02;;;;;;;;;;4797378;29;20038;-83
2023/04/03 06:19:15;;;;;;;14.35;9.32;;;;;;;;;;4796725;29;20043;-82
2023/04/03 06:22:05;;;;;;;8.45;5.10;;;;;;;;;;4797479;29;20046;-81
2023/04/03 06:24:51;;;;;;;6.80;5.63;;;;;;;;;;4798912;29;20047;-80
2023/04/03 06:27:37;;;;;;;12.77;8.40;;;;;;;;;;4809172;29;20046;-79
2023/04/03 06:30:22;;;;;;;7.32;5.47;;;;;;;;;;4812405;29;20042;-80
2023/04/03 06:33:07;;;;;;;7.68;5.45;;;;;;;;;;4812783;29;20055;-82
2023/04/03 06:36:01;;;;;;;3.90;3.53;;;;;;;;;;4807005;29;20454;-81
2023/04/03 06:38:46;;;;;;;6.53;4.22;;;;;;;;;;4813232;29;20051;-81
2023/04/03 06:41:31;;;;;;;6.18;5.18;;;;;;;;;;4812279;29;20492;-80
2023/04/03 06:44:17;;;;;;;10.82;7.65;;;;;;;;;;4812366;29;20059;-81
2023/04/03 06:47:03;;;;;;;11.02;5.25;;;;;;;;;;4813737;29;20058;-81
2023/04/03 06:49:48;;;;;;;10.85;6.35;;;;;;;;;;4812980;29;20492;-81
2023/04/03 06:52:34;;;;;;;6.07;4.63;;;;;;;;;;4812344;29;20054;-82
2023/04/03 06:55:19;;;;;;;5.88;3.88;;;;;;;;;;4799280;29;20051;-81
2023/04/03 06:58:05;;;;;;;10.95;6.45;;;;;;;;;;4813588;29;20054;-82
2023/04/03 07:00:50;;;;;;;16.45;7.90;;;;;;;;;;4812592;29;20063;-81
2023/04/03 07:03:37;;;;;;;17.42;10.32;;;;;;;;;;4810866;29;20050;-82
2023/04/03 07:06:23;;;;;;;16.58;10.35;;;;;;;;;;4809163;29;20758;-82
2023/04/03 07:09:10;;;;;;;7.93;4.82;;;;;;;;;;4811141;29;20054;-82
2023/04/03 07:11:55;;;;;;;13.75;8.98;;;;;;;;;;4797679;29;20059;-82
2023/04/03 07:14:41;;;;;;;17.38;10.88;;;;;;;;;;4812833;29;20401;-83
2023/04/03 07:17:26;;;;;;;18.17;11.75;;;;;;;;;;4810881;29;20050;-82
2023/04/03 07:20:11;;;;;;;13.82;9.38;;;;;;;;;;4811914;29;20047;-81
2023/04/03 07:22:57;;;;;;;15.20;9.77;;;;;;;;;;4797651;29;20043;-82
2023/04/03 07:25:47;;;;;;;19.45;12.02;;;;;;;;;;4810072;29;20063;-82
2023/04/03 07:28:32;;;;;;;15.32;10.57;;;;;;;;;;4810697;29;20042;-83
2023/04/03 07:31:18;;;;;;;14.13;10.32;;;;;;;;;;4812024;29;20047;-81
2023/04/03 07:34:04;;;;;;;6.13;4.38;;;;;;;;;;4800341;29;20046;-82
2023/04/03 07:36:49;;;;;;;15.27;9.85;;;;;;;;;;4811858;29;20505;-81
2023/04/03 07:39:35;;;;;;;12.98;9.27;;;;;;;;;;4811045;29;20051;-80
2023/04/03 07:42:20;;;;;;;10.80;8.30;;;;;;;;;;4810710;29;20508;-80
2023/04/03 07:45:05;;;;;;;9.75;7.10;;;;;;;;;;4810299;29;20047;-81
2023/04/03 07:47:51;;;;;;;15.20;10.43;;;;;;;;;;4812086;29;20497;-82
2023/04/03 07:50:36;;;;;;;17.00;11.70;;;;;;;;;;4798063;29;20050;-81
2023/04/03 07:53:21;;;;;;;15.73;9.00;;;;;;;;;;4811522;29;20050;-81
2023/04/03 07:56:14;;;;;;;17.58;10.73;;;;;;;;;;4809730;29;20485;-81
2023/04/03 07:59:01;;;;;;;16.77;9.18;;;;;;;;;;4810214;29;20046;-83
2023/04/03 08:01:46;;;;;;;10.10;5.28;;;;;;;;;;4809823;29;20400;-81
2023/04/03 08:04:31;;;;;;;22.23;11.75;;;;;;;;;;4797480;29;20497;-80
2023/04/03 08:07:16;;;;;;;20.00;10.35;;;;;;;;;;4809897;29;20492;-82
2023/04/03 08:10:02;;;;;;;12.57;7.97;;;;;;;;;;4811664;29;20042;-81
2023/04/03 08:12:48;;;;;;;13.63;7.78;;;;;;;;;;4811566;29;20046;-81
2023/04/03 08:15:33;;;;;;;8.38;5.18;;;;;;;;;;4810773;29;20050;-82
2023/04/03 08:18:21;;;;;;;7.32;5.22;;;;;;;;;;4798863;29;20050;-79
2023/04/03 08:21:11;;;;;;;14.55;8.95;;;;;;;;;;4811276;29;20054;-79
2023/04/03 08:23:56;;;;;;;15.02;8.07;;;;;;;;;;4811729;29;20051;-81
2023/04/03 08:26:41;;;;;;;18.08;9.73;;;;;;;;;;4798183;29;20054;-82
2023/04/03 08:29:27;;;;;;;11.27;6.32;;;;;;;;;;4810258;29;20042;-82
2023/04/03 08:32:12;;;;;;;25.50;14.27;;;;;;;;;;4812279;29;20042;-81
2023/04/03 08:34:58;;;;;;;49.05;26.52;;;;;;;;;;4811336;29;20054;-83
2023/04/03 08:37:44;;;;;;;26.73;16.33;;;;;;;;;;4811726;29;20062;-80
2023/04/03 08:40:30;;;;;;;149.45;71.32;;;;;;;;;;4812345;29;20038;-81
2023/04/03 08:43:43;;;;;;;25.83;12.45;;;;;;;;;;4811678;29;20054;-82
2023/04/03 08:46:38;;;;;;;28.13;15.98;;;;;;;;;;4811991;29;20412;-81
2023/04/03 08:49:32;;;;;;;21.63;13.05;;;;;;;;;;4811654;29;20047;-81
2023/04/03 08:52:39;;;;;;;28.52;15.82;;;;;;;;;;4811103;29;20050;-81
2023/04/03 08:55:42;;;;;;;13.10;6.70;;;;;;;;;;4795039;29;20078;-80
2023/04/03 08:58:31;;;;;;;8.85;4.60;;;;;;;;;;4811014;29;20051;-80
2023/04/03 09:01:21;;;;;;;16.60;7.72;;;;;;;;;;4811422;29;20050;-80
2023/04/03 09:04:12;;;;;;;13.60;7.35;;;;;;;;;;4811412;29;20051;-81
2023/04/03 09:07:06;;;;;;;10.18;5.72;;;;;;;;;;4811310;29;20489;-80
2023/04/03 09:09:53;;;;;;;16.90;7.13;;;;;;;;;;4810843;29;20497;-78
2023/04/03 09:12:51;;;;;;;12.25;6.57;;;;;;;;;;4810818;29;20046;-78
2023/04/03 09:15:36;;;;;;;15.38;6.03;;;;;;;;;;4810849;29;20051;-80
2023/04/03 09:18:40;;;;;;;7.68;4.60;;;;;;;;;;4810081;29;20067;-79
2023/04/03 09:21:36;;;;;;;12.80;7.18;;;;;;;;;;4803330;29;20481;-79
2023/04/03 09:24:23;;;;;;;10.40;5.40;;;;;;;;;;4801033;29;20042;-79
2023/04/03 09:27:11;;;;;;;12.35;5.63;;;;;;;;;;4811599;29;20054;-79
2023/04/03 09:29:57;;;;;;;8.15;4.95;;;;;;;;;;4809182;29;20054;-79
2023/04/03 09:32:44;;;;;;;9.63;5.47;;;;;;;;;;4795828;29;20428;-79
2023/04/03 09:35:35;;;;;;;5.13;3.63;;;;;;;;;;4801829;29;20050;-79
2023/04/03 09:38:22;;;;;;;8.18;5.03;;;;;;;;;;4814384;29;20054;-80
2023/04/03 09:41:17;;;;;;;21.88;12.43;;;;;;;;;;4808471;29;20046;-78
2023/04/03 09:44:02;;;;;;;16.52;8.00;;;;;;;;;;4795936;29;20047;-78
2023/04/03 09:46:49;;;;;;;15.80;7.63;;;;;;;;;;4808764;29;20034;-79
2023/04/03 09:49:34;;;;;;;8.48;5.63;;;;;;;;;;4795179;29;20050;-80
2023/04/03 09:52:25;;;;;;;7.88;5.20;;;;;;;;;;4809943;29;20047;-78
2023/04/03 09:55:18;;;;;;;10.48;5.30;;;;;;;;;;4808775;29;20500;-78
2023/04/03 09:58:33;;;;;;;12.30;6.80;;;;;;;;;;4810540;29;20047;-79
2023/04/03 10:01:27;;;;;;;13.82;6.35;;;;;;;;;;4801469;29;20042;-79
2023/04/03 10:04:15;;;;;;;;;;;;;;;;;;4811933;29;20042;-79
2023/04/03 10:07:00;;;;;;;7.35;4.60;;;;;;;;;;4812109;29;20367;-80
2023/04/03 10:09:55;;;;;;;4.88;3.28;;;;;;;;;;4814291;29;20492;-80
2023/04/03 10:12:39;;;;;;;13.82;8.02;;;;;;;;;;4810923;29;20046;-80
2023/04/03 10:15:28;;;;;;;16.50;9.27;;;;;;;;;;4813490;29;20047;-80
2023/04/03 10:18:29;;;;;;;6.78;4.32;;;;;;;;;;4811868;29;20058;-80
2023/04/03 10:21:27;;;;;;;15.90;7.60;;;;;;;;;;4813318;29;20055;-81
2023/04/03 10:24:27;;;;;;;4.50;3.05;;;;;;;;;;4813824;29;20051;-81
2023/04/03 10:27:15;;;;;;;11.23;4.90;;;;;;;;;;4785898;30;20044;-81
2023/04/03 10:30:33;;;;;;;10.57;5.43;;;;;;;;;;4787518;30;20055;-79
2023/04/03 10:33:36;;;;;;;3.90;2.97;;;;;;;;;;4787576;30;20055;-79
2023/04/03 10:36:45;;;;;;;10.95;8.18;;;;;;;;;;4786017;30;20047;-79
2023/04/03 10:39:34;;;;;;;11.48;5.05;;;;;;;;;;4777351;29;20724;-78
2023/04/03 10:42:38;;;;;;;5.97;4.57;;;;;;;;;;4778786;29;20055;-78
2023/04/03 10:45:30;;;;;;;4.03;2.85;;;;;;;;;;4776996;29;20044;-79
2023/04/03 10:48:54;;;;;;;7.60;4.82;;;;;;;;;;4787031;30;20517;-79
2023/04/03 10:51:41;;;;;;;14.13;7.65;;;;;;;;;;4787474;30;20047;-79
2023/04/03 10:54:59;;;;;;;14.57;7.45;;;;;;;;;;4779159;29;20055;-78
2023/04/03 10:57:45;;;;;;;10.38;6.68;;;;;;;;;;4782220;30;20047;-80
2023/04/03 11:00:36;;;;;;;12.80;6.30;;;;;;;;;;4787147;30;20051;-80
2023/04/03 11:03:58;;;;;;;4.25;2.90;;;;;;;;;;4779953;29;20051;-80
2023/04/03 11:06:47;;;;;;;9.93;4.82;;;;;;;;;;4777898;29;20047;-80
2023/04/03 11:09:40;;;;;;;7.95;5.03;;;;;;;;;;4785766;30;20043;-79
2023/04/03 11:13:07;;;;;;;10.07;3.60;;;;;;;;;;4778171;29;20043;-81
2023/04/03 11:15:54;;;;;;;13.77;6.22;;;;;;;;;;4766768;30;20534;-79
2023/04/03 11:18:52;;;;;;;24.48;10.15;;;;;;;;;;4771081;30;20059;-79
2023/04/03 11:21:43;;;;;;;8.30;3.17;;;;;;;;;;4785479;30;20059;-79
2023/04/03 11:24:32;;;;;;;8.70;5.72;;;;;;;;;;4787119;30;20409;-79
2023/04/03 11:27:22;;;;;;;10.23;3.92;;;;;;;;;;4801352;29;20051;-79
2023/04/03 11:30:18;;;;;;;11.75;7.97;;;;;;;;;;4802058;29;20051;-80
2023/04/03 11:33:19;;;;;;;22.25;11.65;;;;;;;;;;4802319;29;20480;-80
2023/04/03 11:36:12;;;;;;;14.75;8.85;;;;;;;;;;4801286;29;20429;-79
2023/04/03 11:39:02;;;;;;;9.30;5.18;;;;;;;;;;4803374;29;20412;-79
2023/04/03 11:41:47;;;;;;;13.20;5.97;;;;;;;;;;4795748;29;20047;-79
2023/04/03 11:44:38;;;;;;;14.90;8.80;;;;;;;;;;4802144;29;20050;-79
2023/04/03 11:47:48;;;;;;;26.75;10.32;;;;;;;;;;4802227;29;20055;-81
2023/04/03 11:50:34;;;;;;;15.25;8.77;;;;;;;;;;4801853;29;20477;-80
2023/04/03 11:53:34;;;;;;;25.83;11.85;;;;;;;;;;4803362;29;20497;-79
2023/04/03 11:56:23;;;;;;;16.05;7.93;;;;;;;;;;4801709;29;20063;-79
2023/04/03 11:59:13;;;;;;;24.25;10.82;;;;;;;;;;4803387;29;20047;-79
2023/04/03 12:01:58;;;;;;;29.73;13.80;;;;;;;;;;4794797;29;20046;-79
2023/04/03 12:05:22;;;;;;;25.85;12.88;;;;;;;;;;4801608;29;20059;-79
2023/04/03 12:08:29;;;;;;;25.55;12.77;;;;;;;;;;4799015;29;20047;-79
2023/04/03 12:11:26;;;;;;;8.30;4.75;;;;;;;;;;4799859;29;20063;-80
2023/04/03 12:14:16;;;;;;;7.03;5.32;;;;;;;;;;4787582;29;20481;-83
2023/04/03 12:17:01;;;;;;;29.00;12.88;;;;;;;;;;4801325;29;20051;-82
2023/04/03 12:19:47;;;;;;;20.65;9.60;;;;;;;;;;4801465;29;20047;-81
2023/04/03 12:22:32;;;;;;;12.00;7.18;;;;;;;;;;4787297;29;20936;-80
2023/04/03 12:25:47;;;;;;;17.48;9.10;;;;;;;;;;4804727;29;20058;-79
2023/04/03 12:28:38;;;;;;;8.35;6.35;;;;;;;;;;4809925;29;20047;-80
2023/04/03 12:31:31;;;;;;;17.45;9.20;;;;;;;;;;4810066;29;20417;-82
2023/04/03 12:34:34;;;;;;;22.63;11.90;;;;;;;;;;4809356;29;20505;-81
2023/04/03 12:37:41;;;;;;;8.95;6.22;;;;;;;;;;4810330;29;20050;-81
2023/04/03 12:40:36;;;;;;;17.60;10.15;;;;;;;;;;4810945;29;20050;-81
2023/04/03 12:43:40;;;;;;;12.65;7.22;;;;;;;;;;4795575;29;20058;-81
2023/04/03 12:46:33;;;;;;;13.40;7.90;;;;;;;;;;4802757;29;20042;-81
2023/04/03 12:49:37;;;;;;;15.73;9.43;;;;;;;;;;4809225;29;20046;-80
2023/04/03 12:52:29;;;;;;;14.95;8.82;;;;;;;;;;4811298;29;20050;-81
2023/04/03 12:55:20;;;;;;;13.27;7.22;;;;;;;;;;4809362;29;20508;-80
2023/04/03 12:58:33;;;;;;;24.60;13.00;;;;;;;;;;4806823;29;20062;-81
2023/04/03 13:01:24;;;;;;;20.38;12.60;;;;;;;;;;4815638;29;20405;-80
2023/04/03 13:04:14;;;;;;;12.32;7.97;;;;;;;;;;4810209;29;20051;-81
2023/04/03 13:06:59;;;;;;;22.67;12.80;;;;;;;;;;4809392;29;20042;-81
2023/04/03 13:09:55;;;;;;;34.47;21.50;;;;;;;;;;4809260;29;20046;-79
2023/04/03 13:12:50;;;;;;;26.75;15.32;;;;;;;;;;4806890;29;20042;-82
2023/04/03 13:16:09;;;;;;;30.67;17.55;;;;;;;;;;4808522;29;20062;-83
2023/04/03 13:18:55;;;;;;;27.73;17.35;;;;;;;;;;4798676;29;20505;-80
2023/04/03 13:21:40;;;;;;;26.63;15.88;;;;;;;;;;4809989;29;20054;-81
2023/04/03 13:24:30;;;;;;;26.73;16.75;;;;;;;;;;4809217;29;20050;-83
2023/04/03 13:27:16;;;;;;;25.27;15.30;;;;;;;;;;4809568;29;20059;-82
2023/04/03 13:30:17;;;;;;;31.90;17.50;;;;;;;;;;4809832;29;20054;-82
2023/04/03 13:33:18;;;;;;;32.35;17.83;;;;;;;;;;4810108;29;20054;-81
2023/04/03 13:36:29;;;;;;;26.88;17.20;;;;;;;;;;4804077;29;20404;-81
2023/04/03 13:39:15;;;;;;;24.80;16.10;;;;;;;;;;4795852;29;20046;-80
2023/04/03 13:42:23;;;;;;;26.88;16.63;;;;;;;;;;4808865;29;20043;-81
2023/04/03 13:45:12;;;;;;;31.15;18.45;;;;;;;;;;4809237;29;20412;-81
2023/04/03 13:48:22;;;;;;;30.73;17.95;;;;;;;;;;4808923;29;20046;-81
2023/04/03 13:51:11;;;;;;;32.10;17.50;;;;;;;;;;4809502;29;20046;-83
2023/04/03 13:54:00;;;;;;;27.10;16.75;;;;;;;;;;4814817;29;20050;-80
2023/04/03 13:56:56;;;;;;;34.28;20.58;;;;;;;;;;4815755;29;20059;-80
2023/04/03 13:59:45;;;;;;;33.95;18.85;;;;;;;;;;4815883;29;20043;-81
2023/04/03 14:02:33;;;;;;;37.88;21.73;;;;;;;;;;4807658;29;20397;-81
2023/04/03 14:05:21;;;;;;;50.25;25.20;;;;;;;;;;4813811;29;20572;-82
2023/04/03 14:08:11;;;;;;;62.03;31.92;;;;;;;;;;4812939;29;20046;-81
2023/04/03 14:10:57;;;;;;;51.75;28.00;;;;;;;;;;4794195;29;20492;-82
2023/04/03 14:13:45;;;;;;;52.67;27.98;;;;;;;;;;4802054;29;20705;-82
2023/04/03 14:16:36;;;;;;;48.08;27.13;;;;;;;;;;4808650;29;20396;-82
2023/04/03 14:19:26;;;;;;;37.70;22.58;;;;;;;;;;4808320;29;20473;-81
2023/04/03 14:22:28;;;;;;;69.53;33.05;;;;;;;;;;4808766;29;20058;-81
2023/04/03 14:25:15;;;;;;;242.55;68.07;;;;;;;;;;4808781;29;20046;-82
2023/04/03 14:28:20;;;;;;;153.73;58.40;;;;;;;;;;4799707;29;20717;-81
2023/04/03 14:31:11;;;;;;;43.63;24.48;;;;;;;;;;4799184;29;20420;-82
2023/04/03 14:33:57;;;;;;;90.50;36.25;;;;;;;;;;4799204;29;20067;-81
2023/04/03 14:36:48;;;;;;;37.13;24.58;;;;;;;;;;4800363;29;20055;-81
2023/04/03 14:39:40;;;;;;;32.15;21.63;;;;;;;;;;4799988;29;20047;-82
2023/04/03 14:42:33;;;;;;;33.63;22.48;;;;;;;;;;4799869;29;20062;-83
2023/04/03 14:45:24;;;;;;;28.23;20.05;;;;;;;;;;4799262;29;20059;-80
2023/04/03 14:48:18;;;;;;;40.22;22.83;;;;;;;;;;4800010;29;20512;-81
2023/04/03 14:51:04;;;;;;;46.67;25.55;;;;;;;;;;4804565;29;20058;-83
2023/04/03 14:53:51;;;;;;;38.50;22.52;;;;;;;;;;4803356;29;20055;-83
2023/04/03 14:56:37;;;;;;;51.40;28.70;;;;;;;;;;4808616;29;20043;-81
2023/04/03 14:59:23;;;;;;;42.15;25.77;;;;;;;;;;4801788;29;20054;-81
2023/04/03 15:02:34;;;;;;;39.75;24.45;;;;;;;;;;4802239;29;20047;-84
2023/04/03 15:05:19;;;;;;;44.08;25.92;;;;;;;;;;4802890;29;20404;-82
2023/04/03 15:08:04;;;;;;;36.42;24.23;;;;;;;;;;4801544;29;20042;-82
2023/04/03 15:10:52;;;;;;;41.33;24.48;;;;;;;;;;4803096;29;20051;-83
2023/04/03 15:13:42;;;;;;;35.15;17.88;;;;;;;;;;4794773;29;20062;-82
2023/04/03 15:16:28;;;;;;;27.92;19.38;;;;;;;;;;4802707;29;20051;-82
2023/04/03 15:19:19;;;;;;;37.38;23.50;;;;;;;;;;4807663;29;20405;-82
2023/04/03 15:22:06;;;;;;;45.53;25.05;;;;;;;;;;4802554;29;20042;-82
2023/04/03 15:24:51;;;;;;;46.88;27.08;;;;;;;;;;4803930;29;20480;-82
2023/04/03 15:27:40;;;;;;;45.60;24.67;;;;;;;;;;4802489;29;20051;-82
2023/04/03 15:30:26;;;;;;;47.33;24.92;;;;;;;;;;4801168;29;20489;-82
2023/04/03 15:33:11;;;;;;;36.10;21.75;;;;;;;;;;4801978;29;20401;-82
2023/04/03 15:35:57;;;;;;;25.27;16.50;;;;;;;;;;4802081;29;20050;-82
2023/04/03 15:38:42;;;;;;;30.48;18.88;;;;;;;;;;4803934;29;20046;-82
2023/04/03 15:41:28;;;;;;;52.58;24.60;;;;;;;;;;4802148;29;20050;-81
2023/04/03 15:44:17;;;;;;;46.10;23.67;;;;;;;;;;4802990;29;20055;-81
2023/04/03 15:47:09;;;;;;;80.40;29.48;;;;;;;;;;4801976;29;20412;-82
2023/04/03 15:49:59;;;;;;;22.52;14.00;;;;;;;;;;4803618;29;20051;-80
2023/04/03 15:52:54;;;;;;;40.75;23.33;;;;;;;;;;4802608;29;20046;-83
2023/04/03 15:55:40;;;;;;;14.23;9.35;;;;;;;;;;4803265;29;20321;-83
2023/04/03 15:58:25;;;;;;;40.95;19.52;;;;;;;;;;4803402;29;20457;-83
2023/04/03 16:01:12;;;;;;;24.75;13.65;;;;;;;;;;4800688;29;20484;-82
2023/04/03 16:04:02;;;;;;;29.60;19.50;;;;;;;;;;4803480;29;20046;-82
2023/04/03 16:06:48;;;;;;;18.13;10.63;;;;;;;;;;4801967;29;20051;-82
2023/04/03 16:09:35;;;;;;;30.00;19.50;;;;;;;;;;4802580;29;20042;-81
2023/04/03 16:12:21;;;;;;;33.92;20.25;;;;;;;;;;4802698;29;20047;-82
2023/04/03 16:15:07;;;;;;;37.70;22.55;;;;;;;;;;4802802;29;20046;-82
2023/04/03 16:17:53;;;;;;;19.20;11.23;;;;;;;;;;4795351;29;20058;-82
2023/04/03 16:20:39;;;;;;;31.90;18.33;;;;;;;;;;4803408;29;20043;-82
2023/04/03 16:23:24;;;;;;;32.03;19.38;;;;;;;;;;4795093;29;20046;-82
2023/04/03 16:26:10;;;;;;;25.40;15.25;;;;;;;;;;4801901;29;20428;-81
2023/04/03 16:28:55;;;;;;;37.45;20.38;;;;;;;;;;4801158;29;20047;-82
2023/04/03 16:31:40;;;;;;;42.03;25.13;;;;;;;;;;4801041;29;20058;-83
2023/04/03 16:34:26;;;;;;;36.83;22.05;;;;;;;;;;4793590;29;20413;-82
2023/04/03 16:37:12;;;;;;;18.05;11.82;;;;;;;;;;4801854;29;20059;-84